createdAt,value
2022-10-18T00:01:02.320Z,65.43
2022-10-18T00:03:29.839Z,73.00
2022-10-18T00:05:57.120Z,62.90
2022-10-18T00:08:24.490Z,67.25
2022-10-18T00:10:51.775Z,74.85
2022-10-18T00:13:19.064Z,67.88
2022-10-18T00:15:50.523Z,73.95
2022-10-18T00:18:17.822Z,70.07
2022-10-18T00:20:45.084Z,80.18
2022-10-18T00:23:12.388Z,69.40
2022-10-18T00:25:39.622Z,75.93
2022-10-18T00:28:06.820Z,73.55
2022-10-18T00:30:34.047Z,77.78
2022-10-18T00:33:01.279Z,66.65
2022-10-18T00:35:28.485Z,74.65
2022-10-18T00:37:55.767Z,63.85
2022-10-18T00:40:22.982Z,76.45
2022-10-18T00:42:50.172Z,71.63
2022-10-18T00:45:22.345Z,72.55
2022-10-18T00:47:53.098Z,66.43
2022-10-18T00:50:21.789Z,69.10
2022-10-18T00:52:53.216Z,62.78
2022-10-18T00:55:20.826Z,52.13
2022-10-18T00:57:49.568Z,76.78
2022-10-18T01:00:17.131Z,63.75
2022-10-18T01:02:45.387Z,61.85
2022-10-18T01:05:14.059Z,67.93
2022-10-18T01:08:04.324Z,58.55
2022-10-18T01:10:35.775Z,70.35
2022-10-18T01:13:20.930Z,61.25
2022-10-18T01:15:53.465Z,64.80
2022-10-18T01:18:42.172Z,66.60
2022-10-18T01:21:15.268Z,64.68
2022-10-18T01:23:45.914Z,61.90
2022-10-18T01:26:18.843Z,68.05
2022-10-18T01:29:06.386Z,65.07
2022-10-18T01:32:02.827Z,74.13
2022-10-18T01:34:33.715Z,71.43
2022-10-18T01:37:02.103Z,66.72
2022-10-18T01:39:32.209Z,72.60
2022-10-18T01:42:00.544Z,62.78
2022-10-18T01:44:30.394Z,64.80
2022-10-18T01:46:57.877Z,65.50
2022-10-18T01:49:25.430Z,69.55
2022-10-18T01:51:52.697Z,61.42
2022-10-18T01:54:26.423Z,71.55
2022-10-18T01:57:02.867Z,63.00
2022-10-18T01:59:38.883Z,63.70
2022-10-18T02:02:24.334Z,64.50
2022-10-18T02:04:54.799Z,59.25
2022-10-18T02:07:51.879Z,65.20
2022-10-18T02:10:27.465Z,68.78
2022-10-18T02:12:55.536Z,70.65
2022-10-18T02:15:24.627Z,68.85
2022-10-18T02:17:52.811Z,81.70
2022-10-18T02:20:21.623Z,76.72
2022-10-18T02:22:51.360Z,73.45
2022-10-18T02:25:21.274Z,74.78
2022-10-18T02:27:48.576Z,84.55
2022-10-18T02:30:16.022Z,84.10
2022-10-18T02:32:50.329Z,70.15
2022-10-18T02:35:21.322Z,79.07
2022-10-18T02:37:49.883Z,70.40
2022-10-18T02:40:17.700Z,94.28
2022-10-18T02:42:50.512Z,85.43
2022-10-18T02:45:18.116Z,98.13
2022-10-18T02:47:45.373Z,90.85
2022-10-18T02:50:12.968Z,90.50
2022-10-18T02:52:40.304Z,72.15
2022-10-18T02:55:08.056Z,73.75
2022-10-18T02:57:35.343Z,104.47
2022-10-18T03:00:02.687Z,103.93
2022-10-18T03:02:29.944Z,191.15
2022-10-18T03:04:57.237Z,158.07
2022-10-18T03:07:24.535Z,110.80
2022-10-18T03:09:51.840Z,90.65
2022-10-18T03:12:19.051Z,101.32
2022-10-18T03:14:46.272Z,97.32
2022-10-18T03:17:13.656Z,77.75
2022-10-18T03:19:40.939Z,97.95
2022-10-18T03:22:08.264Z,85.75
2022-10-18T03:24:35.480Z,86.00
2022-10-18T03:27:03.063Z,212.75
2022-10-18T03:29:30.283Z,91.65
2022-10-18T03:31:57.491Z,121.95
2022-10-18T03:34:24.726Z,94.78
2022-10-18T03:36:51.952Z,84.63
2022-10-18T03:39:19.184Z,88.50
2022-10-18T03:41:46.444Z,93.40
2022-10-18T03:44:13.652Z,165.85
2022-10-18T03:46:40.920Z,114.13
2022-10-18T03:49:08.142Z,122.57
2022-10-18T03:51:35.412Z,187.70
2022-10-18T03:54:02.612Z,86.75
2022-10-18T03:56:29.894Z,103.57
2022-10-18T03:58:57.201Z,124.65
2022-10-18T04:01:24.640Z,88.78
2022-10-18T04:03:51.949Z,106.65
2022-10-18T04:06:19.165Z,124.72
2022-10-18T04:08:46.421Z,127.88
2022-10-18T04:11:13.680Z,81.25
2022-10-18T04:13:40.952Z,113.55
2022-10-18T04:16:08.227Z,108.90
2022-10-18T04:18:35.445Z,126.88
2022-10-18T04:21:02.703Z,101.80
2022-10-18T04:23:31.780Z,92.93
2022-10-18T04:26:01.092Z,121.72
2022-10-18T04:28:28.357Z,98.15
2022-10-18T04:30:55.641Z,93.45
2022-10-18T04:33:23.544Z,98.80
2022-10-18T04:35:52.274Z,97.95
2022-10-18T04:38:19.890Z,170.02
2022-10-18T04:40:47.151Z,103.22
2022-10-18T04:43:14.371Z,77.63
2022-10-18T04:45:41.913Z,108.05
2022-10-18T04:48:09.237Z,112.72
2022-10-18T04:50:36.483Z,83.70
2022-10-18T04:53:03.779Z,105.32
2022-10-18T04:55:30.977Z,184.30
2022-10-18T04:57:58.211Z,152.77
2022-10-18T05:00:25.470Z,172.50
2022-10-18T05:02:56.964Z,252.55
2022-10-18T05:05:27.045Z,111.25
2022-10-18T05:08:00.464Z,78.25
2022-10-18T05:10:27.748Z,144.15
2022-10-18T05:12:54.971Z,103.57
2022-10-18T05:15:22.212Z,111.45
2022-10-18T05:17:49.507Z,110.85
2022-10-18T05:20:16.839Z,113.15
2022-10-18T05:22:44.370Z,106.70
2022-10-18T05:25:11.684Z,104.88
2022-10-18T05:27:39.049Z,96.97
2022-10-18T05:30:06.531Z,99.30
2022-10-18T05:32:34.054Z,103.53
2022-10-18T05:35:01.498Z,102.00
2022-10-18T05:37:28.866Z,71.75
2022-10-18T05:39:56.100Z,74.25
2022-10-18T05:42:23.340Z,75.80
2022-10-18T05:44:50.586Z,76.65
2022-10-18T05:47:17.794Z,102.13
2022-10-18T05:49:45.059Z,81.93
2022-10-18T05:52:12.300Z,146.45
2022-10-18T05:54:39.536Z,73.63
2022-10-18T05:57:06.785Z,64.97
2022-10-18T05:59:34.052Z,90.93
2022-10-18T06:02:01.317Z,97.40
2022-10-18T06:04:28.538Z,63.63
2022-10-18T06:06:56.215Z,66.82
2022-10-18T06:09:23.478Z,59.72
2022-10-18T06:11:50.695Z,59.47
2022-10-18T06:14:18.016Z,81.18
2022-10-18T06:16:45.265Z,55.90
2022-10-18T06:19:12.520Z,60.17
2022-10-18T06:21:39.761Z,72.70
2022-10-18T06:24:07.193Z,103.85
2022-10-18T06:26:34.432Z,113.32
2022-10-18T06:29:01.709Z,70.80
2022-10-18T06:31:29.002Z,75.78
2022-10-18T06:33:58.094Z,70.95
2022-10-18T06:36:25.767Z,113.80
2022-10-18T06:38:53.013Z,54.22
2022-10-18T06:41:20.527Z,69.28
2022-10-18T06:43:51.288Z,77.70
2022-10-18T06:46:18.599Z,63.47
2022-10-18T06:48:46.203Z,63.80
2022-10-18T06:51:13.599Z,69.00
2022-10-18T06:53:44.345Z,67.28
2022-10-18T06:56:26.192Z,65.85
2022-10-18T06:58:53.431Z,57.55
2022-10-18T07:01:20.927Z,67.68
2022-10-18T07:03:49.015Z,80.80
2022-10-18T07:06:18.121Z,72.07
2022-10-18T07:08:45.610Z,74.82
2022-10-18T07:11:17.371Z,81.80
2022-10-18T07:13:44.758Z,90.65
2022-10-18T07:16:15.803Z,72.47
2022-10-18T07:18:46.729Z,52.92
2022-10-18T07:21:16.192Z,71.93
2022-10-18T07:23:46.187Z,52.95
2022-10-18T07:26:19.383Z,49.05
2022-10-18T07:28:47.827Z,61.72
2022-10-18T07:31:15.075Z,75.53
2022-10-18T07:33:45.221Z,41.40
2022-10-18T07:36:13.221Z,52.33
2022-10-18T07:38:41.164Z,47.33
2022-10-18T07:41:08.933Z,43.60
2022-10-18T07:43:36.684Z,45.10
2022-10-18T07:46:06.106Z,315.27
2022-10-18T07:48:33.367Z,71.00
2022-10-18T07:51:01.750Z,47.30
2022-10-18T07:53:29.871Z,39.88
2022-10-18T07:56:02.420Z,47.60
2022-10-18T07:58:32.720Z,45.80
2022-10-18T08:01:06.736Z,40.05
2022-10-18T08:03:34.195Z,40.05
2022-10-18T08:06:01.439Z,35.03
2022-10-18T08:08:28.995Z,35.92
2022-10-18T08:10:56.436Z,32.58
2022-10-18T08:13:23.672Z,34.75
2022-10-18T08:15:50.856Z,31.98
2022-10-18T08:18:18.105Z,28.27
2022-10-18T08:20:45.954Z,25.33
2022-10-18T08:23:13.558Z,18.52
2022-10-18T08:25:40.871Z,19.42
2022-10-18T08:28:08.482Z,14.48
2022-10-18T08:30:36.470Z,27.77
2022-10-18T08:33:04.323Z,19.40
2022-10-18T08:35:31.953Z,21.13
2022-10-18T08:37:59.568Z,11.45
2022-10-18T08:40:27.656Z,13.68
2022-10-18T08:43:01.132Z,10.73
2022-10-18T08:45:41.287Z,9.15
2022-10-18T08:48:11.043Z,10.55
2022-10-18T08:50:38.815Z,25.23
2022-10-18T08:53:06.050Z,6.35
2022-10-18T08:55:36.636Z,10.15
2022-10-18T08:58:05.941Z,17.13
2022-10-18T09:00:36.642Z,13.50
2022-10-18T09:03:16.316Z,12.35
2022-10-18T09:05:46.656Z,11.55
2022-10-18T09:08:34.261Z,16.83
2022-10-18T09:11:04.189Z,16.50
2022-10-18T09:13:51.203Z,10.63
2022-10-18T09:16:22.780Z,11.02
2022-10-18T09:18:52.903Z,15.57
2022-10-18T09:21:20.629Z,10.40
2022-10-18T09:23:49.463Z,17.77
2022-10-18T09:26:21.155Z,12.95
2022-10-18T09:28:48.404Z,11.52
2022-10-18T09:31:41.554Z,14.45
2022-10-18T09:34:12.063Z,10.48
2022-10-18T09:36:39.709Z,21.17
2022-10-18T09:39:13.246Z,11.65
2022-10-18T09:41:43.307Z,12.38
2022-10-18T09:44:14.265Z,15.30
2022-10-18T09:46:43.402Z,17.52
2022-10-18T09:49:29.283Z,16.65
2022-10-18T09:51:58.084Z,14.93
2022-10-18T09:54:28.907Z,13.38
2022-10-18T09:56:58.702Z,18.30
2022-10-18T09:59:38.364Z,11.93
2022-10-18T10:02:06.163Z,14.57
2022-10-18T10:04:33.400Z,12.80
2022-10-18T10:07:01.693Z,15.93
2022-10-18T10:09:37.311Z,18.38
2022-10-18T10:12:04.720Z,15.52
2022-10-18T10:14:43.637Z,13.73
2022-10-18T10:17:22.476Z,20.73
2022-10-18T10:20:03.528Z,17.27
2022-10-18T10:22:36.711Z,14.23
2022-10-18T10:25:04.931Z,12.63
2022-10-18T10:27:32.485Z,61.78
2022-10-18T10:30:04.343Z,52.33
2022-10-18T10:32:45.301Z,15.18
2022-10-18T10:35:54.381Z,17.20
2022-10-18T10:38:25.769Z,23.02
2022-10-18T10:40:53.403Z,20.17
2022-10-18T10:43:40.312Z,15.93
2022-10-18T10:46:09.918Z,15.82
2022-10-18T10:49:08.473Z,12.85
2022-10-18T10:51:43.628Z,18.08
2022-10-18T10:54:15.374Z,15.90
2022-10-18T10:57:11.251Z,13.13
2022-10-18T10:59:45.734Z,15.55
2022-10-18T11:02:17.580Z,12.02
2022-10-18T11:04:48.527Z,11.07
2022-10-18T11:07:35.677Z,19.92
2022-10-18T11:10:12.423Z,14.98
2022-10-18T11:12:40.632Z,20.23
2022-10-18T11:15:12.180Z,13.32
2022-10-18T11:20:21.553Z,15.13
2022-10-18T11:22:58.175Z,11.93
2022-10-18T11:25:28.747Z,10.85
2022-10-18T11:28:02.931Z,14.07
2022-10-18T11:30:36.279Z,14.95
2022-10-18T11:33:18.605Z,14.70
2022-10-18T11:36:06.728Z,11.85
2022-10-18T11:38:36.774Z,11.45
2022-10-18T11:41:12.365Z,13.68
2022-10-18T11:44:02.740Z,18.02
2022-10-18T11:47:06.099Z,16.00
2022-10-18T11:49:51.668Z,94.07
2022-10-18T11:52:24.815Z,27.50
2022-10-18T11:54:54.887Z,17.23
2022-10-18T11:57:22.059Z,27.23
2022-10-18T11:59:52.291Z,16.10
2022-10-18T12:02:45.038Z,23.00
2022-10-18T12:05:23.058Z,18.23
2022-10-18T12:08:03.399Z,19.55
2022-10-18T12:10:45.691Z,11.30
2022-10-18T12:13:23.001Z,32.30
2022-10-18T12:15:50.950Z,112.53
2022-10-18T12:18:19.820Z,19.02
2022-10-18T12:20:52.061Z,19.65
2022-10-18T12:23:36.566Z,13.88
2022-10-18T12:26:05.513Z,16.23
2022-10-18T12:28:35.615Z,17.50
2022-10-18T12:31:21.661Z,18.60
2022-10-18T12:33:51.233Z,20.27
2022-10-18T12:36:30.971Z,12.20
2022-10-18T12:39:01.147Z,16.58
2022-10-18T12:41:29.838Z,12.68
2022-10-18T12:44:03.672Z,14.07
2022-10-18T12:46:50.613Z,13.27
2022-10-18T12:49:40.168Z,14.27
2022-10-18T12:52:26.350Z,14.45
2022-10-18T12:55:16.936Z,10.88
2022-10-18T12:57:54.226Z,14.63
2022-10-18T13:00:30.419Z,9.95
2022-10-18T13:03:12.759Z,12.48
2022-10-18T13:05:52.842Z,23.33
2022-10-18T13:08:30.428Z,10.65
2022-10-18T13:11:12.898Z,16.42
2022-10-18T13:13:59.115Z,15.15
2022-10-18T13:16:26.361Z,14.75
2022-10-18T13:19:03.668Z,12.73
2022-10-18T13:21:35.824Z,17.40
2022-10-18T13:24:03.001Z,20.77
2022-10-18T13:26:45.194Z,15.82
2022-10-18T13:29:18.667Z,12.88
2022-10-18T13:31:48.386Z,12.10
2022-10-18T13:34:24.525Z,9.52
2022-10-18T13:37:00.940Z,13.98
2022-10-18T13:39:29.130Z,14.63
2022-10-18T13:42:00.658Z,9.57
2022-10-18T13:46:59.237Z,12.48
2022-10-18T13:49:41.933Z,19.58
2022-10-18T13:52:15.280Z,17.92
2022-10-18T13:54:42.483Z,19.75
2022-10-18T13:57:25.580Z,12.52
2022-10-18T13:59:52.754Z,14.98
2022-10-18T14:02:49.825Z,16.38
2022-10-18T14:05:24.994Z,15.00
2022-10-18T14:07:59.142Z,14.95
2022-10-18T14:11:01.276Z,24.67
2022-10-18T14:13:34.136Z,16.13
2022-10-18T14:16:14.961Z,16.23
2022-10-18T14:18:43.411Z,17.47
2022-10-18T14:21:16.813Z,14.23
2022-10-18T14:23:46.652Z,13.90
2022-10-18T14:26:15.313Z,16.13
2022-10-18T14:28:59.114Z,14.75
2022-10-18T14:31:26.638Z,10.05
2022-10-18T14:33:57.617Z,10.07
2022-10-18T14:39:00.618Z,11.27
2022-10-18T14:41:29.243Z,10.80
2022-10-18T14:44:14.902Z,7.80
2022-10-18T14:46:46.055Z,12.90
2022-10-18T14:49:13.849Z,37.80
2022-10-18T14:51:42.799Z,16.98
2022-10-18T14:56:48.230Z,11.98
2022-10-18T14:59:20.953Z,12.70
2022-10-18T15:01:57.200Z,12.93
2022-10-18T15:04:31.051Z,15.52
2022-10-18T15:06:58.787Z,13.48
2022-10-18T15:09:26.189Z,18.13
2022-10-18T15:11:55.258Z,9.50
2022-10-18T15:14:22.783Z,10.35
2022-10-18T15:16:51.469Z,9.20
2022-10-18T15:19:18.660Z,15.93
2022-10-18T15:22:19.707Z,16.52
2022-10-18T15:24:45.293Z,28.92
2022-10-18T15:27:15.664Z,53.00
2022-10-18T15:29:44.135Z,15.38
2022-10-18T15:32:20.639Z,10.93
2022-10-18T15:34:48.048Z,10.30
2022-10-18T15:37:20.080Z,10.80
2022-10-18T15:39:47.416Z,15.15
2022-10-18T15:42:33.511Z,7.82
2022-10-18T15:45:00.723Z,10.35
2022-10-18T15:47:27.919Z,10.65
2022-10-18T15:49:56.258Z,4.00
2022-10-18T15:52:40.055Z,15.20
2022-10-18T15:55:26.073Z,8.23
2022-10-18T15:57:53.264Z,7.13
2022-10-18T16:00:21.553Z,8.60
2022-10-18T16:02:48.813Z,7.85
2022-10-18T16:05:17.039Z,7.75
2022-10-18T16:07:44.348Z,11.05
2022-10-18T16:10:14.687Z,7.10
2022-10-18T16:12:41.997Z,5.43
2022-10-18T16:15:09.512Z,6.72
2022-10-18T16:17:36.821Z,11.90
2022-10-18T16:20:04.428Z,6.93
2022-10-18T16:22:34.746Z,10.32
2022-10-18T16:25:04.338Z,8.02
2022-10-18T16:27:31.545Z,7.25
2022-10-18T16:29:58.874Z,10.25
2022-10-18T16:32:26.074Z,5.20
2022-10-18T16:34:53.314Z,7.47
2022-10-18T16:37:20.576Z,6.68
2022-10-18T16:39:47.752Z,6.00
2022-10-18T16:42:14.995Z,12.60
2022-10-18T16:44:42.211Z,10.05
2022-10-18T16:47:12.134Z,50.80
2022-10-18T16:49:39.859Z,28.70
2022-10-18T16:52:07.114Z,7.53
2022-10-18T16:54:35.704Z,5.80
2022-10-18T16:57:02.993Z,11.85
2022-10-18T16:59:31.592Z,7.95
2022-10-18T17:02:01.582Z,16.65
2022-10-18T17:04:29.415Z,9.48
2022-10-18T17:06:58.831Z,7.72
2022-10-18T17:09:26.207Z,6.05
2022-10-18T17:11:54.395Z,5.13
2022-10-18T17:14:21.644Z,5.55
2022-10-18T17:16:53.094Z,9.35
2022-10-18T17:19:23.463Z,3.53
2022-10-18T17:21:50.667Z,5.30
2022-10-18T17:24:17.898Z,3.22
2022-10-18T17:26:45.143Z,4.72
2022-10-18T17:29:12.458Z,7.20
2022-10-18T17:31:39.758Z,4.05
2022-10-18T17:34:07.043Z,3.80
2022-10-18T17:36:34.270Z,2.90
2022-10-18T17:39:01.523Z,8.18
2022-10-18T17:41:28.810Z,8.45
2022-10-18T17:43:56.055Z,8.43
2022-10-18T17:46:23.756Z,8.48
2022-10-18T17:48:51.082Z,6.47
2022-10-18T17:51:18.738Z,4.22
2022-10-18T17:53:46.572Z,11.80
2022-10-18T17:56:14.303Z,7.40
2022-10-18T17:58:43.556Z,3.75
2022-10-18T18:01:10.815Z,2.95
2022-10-18T18:03:38.236Z,5.65
2022-10-18T18:06:21.912Z,6.05
2022-10-18T18:08:49.787Z,4.15
2022-10-18T18:11:17.940Z,4.00
2022-10-18T18:13:45.189Z,7.72
2022-10-18T18:16:12.439Z,8.88
2022-10-18T18:18:40.003Z,6.72
2022-10-18T18:21:07.244Z,7.03
2022-10-18T18:23:34.438Z,7.13
2022-10-18T18:26:01.685Z,8.45
2022-10-18T18:28:28.960Z,8.50
2022-10-18T18:30:56.209Z,32.78
2022-10-18T18:33:23.473Z,56.55
2022-10-18T18:35:57.492Z,17.70
2022-10-18T18:38:25.189Z,9.77
2022-10-18T18:41:03.207Z,10.40
2022-10-18T18:43:30.485Z,9.27
2022-10-18T18:45:58.058Z,9.20
2022-10-18T18:48:26.569Z,14.98
2022-10-18T18:50:53.869Z,11.32
2022-10-18T18:53:21.308Z,22.55
2022-10-18T18:55:50.699Z,15.13
2022-10-18T18:58:17.934Z,11.80
2022-10-18T19:00:45.536Z,11.00
2022-10-18T19:03:13.173Z,15.43
2022-10-18T19:05:40.433Z,16.05
2022-10-18T19:08:07.786Z,13.65
2022-10-18T19:10:35.048Z,13.38
2022-10-18T19:13:02.289Z,11.70
2022-10-18T19:15:29.518Z,11.80
2022-10-18T19:17:57.303Z,10.20
2022-10-18T19:20:24.597Z,20.63
2022-10-18T19:22:51.828Z,20.48
2022-10-18T19:25:21.154Z,19.20
2022-10-18T19:30:19.812Z,10.40
2022-10-18T19:32:47.039Z,6.18
2022-10-18T19:35:14.279Z,12.43
2022-10-18T19:37:41.523Z,16.88
2022-10-18T19:40:09.022Z,15.02
2022-10-18T19:42:37.381Z,11.27
2022-10-18T19:45:05.190Z,9.75
2022-10-18T19:47:32.518Z,17.77
2022-10-18T19:49:59.736Z,14.52
2022-10-18T19:52:28.408Z,15.20
2022-10-18T19:54:55.648Z,12.85
2022-10-18T19:57:22.867Z,18.48
2022-10-18T19:59:50.474Z,10.70
2022-10-18T20:02:17.686Z,11.48
2022-10-18T20:04:44.927Z,22.85
2022-10-18T20:07:12.305Z,14.15
2022-10-18T20:09:39.893Z,14.57
2022-10-18T20:12:07.143Z,8.60
2022-10-18T20:14:34.400Z,7.43
2022-10-18T20:17:01.632Z,4.63
2022-10-18T20:19:28.848Z,8.30
2022-10-18T20:21:57.700Z,15.30
2022-10-18T20:24:24.952Z,13.00
2022-10-18T20:29:20.781Z,12.63
2022-10-18T20:31:48.150Z,6.78
2022-10-18T20:34:15.394Z,5.63
2022-10-18T20:36:43.038Z,7.80
2022-10-18T20:39:10.503Z,5.40
2022-10-18T20:41:38.810Z,10.32
2022-10-18T20:44:10.766Z,10.15
2022-10-18T20:46:38.807Z,7.50
2022-10-18T20:49:07.268Z,6.43
2022-10-18T20:51:35.042Z,76.25
2022-10-18T20:56:34.354Z,13.93
2022-10-18T20:59:01.922Z,4.93
2022-10-18T21:01:30.694Z,7.22
2022-10-18T21:03:58.739Z,6.25
2022-10-18T21:06:27.143Z,17.05
2022-10-18T21:08:55.155Z,12.32
2022-10-18T21:11:22.783Z,6.45
2022-10-18T21:13:59.561Z,4.57
2022-10-18T21:16:27.219Z,13.23
2022-10-18T21:18:54.896Z,6.95
2022-10-18T21:21:25.440Z,11.45
2022-10-18T21:23:53.062Z,10.02
2022-10-18T21:26:21.814Z,8.10
2022-10-18T21:28:50.926Z,74.82
2022-10-18T21:31:19.668Z,53.65
2022-10-18T21:33:47.423Z,10.38
2022-10-18T21:36:15.688Z,3.05
2022-10-18T21:38:45.602Z,5.97
2022-10-18T21:41:13.515Z,8.90
2022-10-18T21:43:41.895Z,4.80
2022-10-18T21:46:10.251Z,4.65
2022-10-18T21:48:37.945Z,6.55
2022-10-18T21:51:08.635Z,12.23
2022-10-18T21:53:35.907Z,12.85
2022-10-18T21:56:07.047Z,8.10
2022-10-18T21:58:35.512Z,10.77
2022-10-18T22:01:03.024Z,3.60
2022-10-18T22:03:30.376Z,6.75
2022-10-18T22:06:08.973Z,6.68
2022-10-18T22:08:36.556Z,8.38
2022-10-18T22:11:04.039Z,9.43
2022-10-18T22:13:31.524Z,5.15
2022-10-18T22:16:02.282Z,10.70
2022-10-18T22:18:30.434Z,13.70
2022-10-18T22:20:58.855Z,8.40
2022-10-18T22:23:26.212Z,13.10
2022-10-18T22:25:53.451Z,15.75
2022-10-18T22:28:20.683Z,9.05
2022-10-18T22:30:47.930Z,13.82
2022-10-18T22:33:15.146Z,7.28
2022-10-18T22:35:42.374Z,10.02
2022-10-18T22:38:09.607Z,13.50
2022-10-18T22:40:36.798Z,10.05
2022-10-18T22:43:04.044Z,12.10
2022-10-18T22:45:31.292Z,9.15
2022-10-18T22:47:58.720Z,10.05
2022-10-18T22:50:25.929Z,11.40
2022-10-18T22:52:54.609Z,15.73
2022-10-18T22:55:21.970Z,19.88
2022-10-18T22:57:49.233Z,7.20
2022-10-18T23:00:16.452Z,8.80
2022-10-18T23:02:43.697Z,13.98
2022-10-18T23:05:10.904Z,14.57
2022-10-18T23:07:38.155Z,11.38
2022-10-18T23:10:05.595Z,9.98
2022-10-18T23:12:32.990Z,14.93
2022-10-18T23:15:00.496Z,12.40
2022-10-18T23:17:27.689Z,11.90
2022-10-18T23:19:54.923Z,12.18
2022-10-18T23:22:22.234Z,13.40
2022-10-18T23:24:49.456Z,13.52
2022-10-18T23:27:16.679Z,12.18
2022-10-18T23:29:43.988Z,8.95
2022-10-18T23:32:11.188Z,11.15
2022-10-18T23:34:38.374Z,12.45
2022-10-18T23:37:05.639Z,9.57
2022-10-18T23:39:32.901Z,11.93
2022-10-18T23:42:00.094Z,13.57
2022-10-18T23:44:27.314Z,8.70
2022-10-18T23:46:54.503Z,9.20
2022-10-18T23:49:21.744Z,9.50
2022-10-18T23:51:48.943Z,12.32
2022-10-18T23:54:16.202Z,10.25
2022-10-18T23:56:43.398Z,8.38
2022-10-18T23:59:10.635Z,10.95
